sensor_id;sensor_type;location;lat;lon;timestamp;P1;durP1;ratioP1;P2;durP2;ratioP2
22935;SDS011;11633;42.716;23.312;2022-09-21T00:02:02;3.05;;;1.60;;
22935;SDS011;11633;42.716;23.312;2022-09-21T00:04:27;2.33;;;1.30;;
22935;SDS011;11633;42.716;23.312;2022-09-21T00:06:53;2.10;;;1.52;;
22935;SDS011;11633;42.716;23.312;2022-09-21T00:09:18;2.90;;;1.25;;
22935;SDS011;11633;42.716;23.312;2022-09-21T00:11:43;2.25;;;1.33;;
22935;SDS011;11633;42.716;23.312;2022-09-21T00:14:10;1.77;;;1.35;;
22935;SDS011;11633;42.716;23.312;2022-09-21T00:16:36;2.55;;;1.70;;
22935;SDS011;11633;42.716;23.312;2022-09-21T00:19:02;1.13;;;1.02;;
22935;SDS011;11633;42.716;23.312;2022-09-21T00:21:27;1.63;;;1.30;;
22935;SDS011;11633;42.716;23.312;2022-09-21T00:23:53;2.42;;;1.65;;
22935;SDS011;11633;42.716;23.312;2022-09-21T00:26:19;2.00;;;1.38;;
22935;SDS011;11633;42.716;23.312;2022-09-21T00:28:45;1.58;;;1.38;;
22935;SDS011;11633;42.716;23.312;2022-09-21T00:31:11;1.40;;;1.10;;
22935;SDS011;11633;42.716;23.312;2022-09-21T00:33:38;2.00;;;1.48;;
22935;SDS011;11633;42.716;23.312;2022-09-21T00:36:11;1.55;;;1.45;;
22935;SDS011;11633;42.716;23.312;2022-09-21T00:38:36;2.10;;;1.25;;
22935;SDS011;11633;42.716;23.312;2022-09-21T00:41:02;2.25;;;1.63;;
22935;SDS011;11633;42.716;23.312;2022-09-21T00:43:28;2.20;;;1.40;;
22935;SDS011;11633;42.716;23.312;2022-09-21T00:45:59;2.50;;;1.70;;
22935;SDS011;11633;42.716;23.312;2022-09-21T00:48:25;2.38;;;1.45;;
22935;SDS011;11633;42.716;23.312;2022-09-21T00:50:51;1.45;;;1.35;;
22935;SDS011;11633;42.716;23.312;2022-09-21T00:53:18;1.30;;;1.20;;
22935;SDS011;11633;42.716;23.312;2022-09-21T00:55:45;1.40;;;1.30;;
22935;SDS011;11633;42.716;23.312;2022-09-21T00:58:13;2.72;;;1.40;;
22935;SDS011;11633;42.716;23.312;2022-09-21T01:00:40;1.38;;;1.23;;
22935;SDS011;11633;42.716;23.312;2022-09-21T01:03:07;1.92;;;1.35;;
22935;SDS011;11633;42.716;23.312;2022-09-21T01:05:33;1.77;;;1.17;;
22935;SDS011;11633;42.716;23.312;2022-09-21T01:07:59;2.40;;;1.60;;
22935;SDS011;11633;42.716;23.312;2022-09-21T01:10:26;1.77;;;1.50;;
22935;SDS011;11633;42.716;23.312;2022-09-21T01:13:16;2.58;;;1.65;;
22935;SDS011;11633;42.716;23.312;2022-09-21T01:18:34;1.63;;;1.48;;
22935;SDS011;11633;42.716;23.312;2022-09-21T01:26:06;3.22;;;1.40;;
22935;SDS011;11633;42.716;23.312;2022-09-21T01:31:05;2.97;;;1.38;;
22935;SDS011;11633;42.716;23.312;2022-09-21T01:33:32;1.25;;;1.15;;
22935;SDS011;11633;42.716;23.312;2022-09-21T01:36:00;1.42;;;1.20;;
22935;SDS011;11633;42.716;23.312;2022-09-21T01:38:30;1.50;;;1.40;;
22935;SDS011;11633;42.716;23.312;2022-09-21T01:41:01;1.23;;;1.13;;
22935;SDS011;11633;42.716;23.312;2022-09-21T01:43:30;1.50;;;1.40;;
22935;SDS011;11633;42.716;23.312;2022-09-21T01:45:56;2.33;;;1.45;;
22935;SDS011;11633;42.716;23.312;2022-09-21T01:48:26;3.38;;;1.58;;
22935;SDS011;11633;42.716;23.312;2022-09-21T01:50:52;1.70;;;1.27;;
22935;SDS011;11633;42.716;23.312;2022-09-21T01:53:27;2.03;;;1.42;;
22935;SDS011;11633;42.716;23.312;2022-09-21T01:56:09;1.58;;;1.23;;
22935;SDS011;11633;42.716;23.312;2022-09-21T02:01:14;1.90;;;1.50;;
22935;SDS011;11633;42.716;23.312;2022-09-21T02:03:42;2.00;;;1.52;;
22935;SDS011;11633;42.716;23.312;2022-09-21T02:06:12;1.58;;;1.05;;
22935;SDS011;11633;42.716;23.312;2022-09-21T02:08:38;1.20;;;1.10;;
22935;SDS011;11633;42.716;23.312;2022-09-21T02:11:05;1.40;;;1.15;;
22935;SDS011;11633;42.716;23.312;2022-09-21T02:13:34;2.25;;;1.60;;
22935;SDS011;11633;42.716;23.312;2022-09-21T02:16:08;2.72;;;1.67;;
22935;SDS011;11633;42.716;23.312;2022-09-21T02:21:06;1.80;;;1.42;;
22935;SDS011;11633;42.716;23.312;2022-09-21T02:23:36;2.25;;;1.60;;
22935;SDS011;11633;42.716;23.312;2022-09-21T02:31:10;2.67;;;1.60;;
22935;SDS011;11633;42.716;23.312;2022-09-21T02:33:40;1.40;;;1.30;;
22935;SDS011;11633;42.716;23.312;2022-09-21T02:36:10;1.58;;;1.30;;
22935;SDS011;11633;42.716;23.312;2022-09-21T02:38:44;1.42;;;1.33;;
22935;SDS011;11633;42.716;23.312;2022-09-21T02:41:31;1.83;;;1.20;;
22935;SDS011;11633;42.716;23.312;2022-09-21T02:49:17;1.38;;;1.27;;
22935;SDS011;11633;42.716;23.312;2022-09-21T02:51:44;2.05;;;1.38;;
22935;SDS011;11633;42.716;23.312;2022-09-21T02:54:15;1.92;;;1.67;;
22935;SDS011;11633;42.716;23.312;2022-09-21T02:56:42;1.90;;;1.70;;
22935;SDS011;11633;42.716;23.312;2022-09-21T02:59:08;1.85;;;1.65;;
22935;SDS011;11633;42.716;23.312;2022-09-21T03:01:34;2.65;;;2.00;;
22935;SDS011;11633;42.716;23.312;2022-09-21T03:04:00;2.38;;;1.50;;
22935;SDS011;11633;42.716;23.312;2022-09-21T03:06:25;2.30;;;1.58;;
22935;SDS011;11633;42.716;23.312;2022-09-21T03:08:50;1.80;;;1.50;;
22935;SDS011;11633;42.716;23.312;2022-09-21T03:11:16;3.83;;;1.90;;
22935;SDS011;11633;42.716;23.312;2022-09-21T03:13:42;4.97;;;2.65;;
22935;SDS011;11633;42.716;23.312;2022-09-21T03:16:07;4.80;;;2.10;;
22935;SDS011;11633;42.716;23.312;2022-09-21T03:18:33;2.80;;;2.05;;
22935;SDS011;11633;42.716;23.312;2022-09-21T03:20:59;3.83;;;2.67;;
22935;SDS011;11633;42.716;23.312;2022-09-21T03:23:24;2.30;;;2.03;;
22935;SDS011;11633;42.716;23.312;2022-09-21T03:25:50;2.63;;;1.58;;
22935;SDS011;11633;42.716;23.312;2022-09-21T03:28:18;4.97;;;2.30;;
22935;SDS011;11633;42.716;23.312;2022-09-21T03:30:44;1.77;;;1.55;;
22935;SDS011;11633;42.716;23.312;2022-09-21T03:33:09;5.22;;;2.08;;
22935;SDS011;11633;42.716;23.312;2022-09-21T03:35:36;3.65;;;2.25;;
22935;SDS011;11633;42.716;23.312;2022-09-21T03:38:02;4.00;;;2.25;;
22935;SDS011;11633;42.716;23.312;2022-09-21T03:40:27;5.38;;;2.05;;
22935;SDS011;11633;42.716;23.312;2022-09-21T03:42:53;1.88;;;1.35;;
22935;SDS011;11633;42.716;23.312;2022-09-21T03:45:18;1.70;;;1.55;;
22935;SDS011;11633;42.716;23.312;2022-09-21T03:47:46;1.90;;;1.77;;
22935;SDS011;11633;42.716;23.312;2022-09-21T03:50:11;2.88;;;2.38;;
22935;SDS011;11633;42.716;23.312;2022-09-21T03:52:37;3.70;;;2.35;;
22935;SDS011;11633;42.716;23.312;2022-09-21T03:55:03;3.38;;;2.60;;
22935;SDS011;11633;42.716;23.312;2022-09-21T03:57:30;3.30;;;2.30;;
22935;SDS011;11633;42.716;23.312;2022-09-21T03:59:55;3.13;;;1.60;;
22935;SDS011;11633;42.716;23.312;2022-09-21T04:02:21;3.17;;;2.08;;
22935;SDS011;11633;42.716;23.312;2022-09-21T04:04:46;3.55;;;2.20;;
22935;SDS011;11633;42.716;23.312;2022-09-21T04:07:11;2.80;;;2.10;;
22935;SDS011;11633;42.716;23.312;2022-09-21T04:09:37;2.65;;;2.10;;
22935;SDS011;11633;42.716;23.312;2022-09-21T04:12:02;2.80;;;1.80;;
22935;SDS011;11633;42.716;23.312;2022-09-21T04:14:27;2.22;;;1.88;;
22935;SDS011;11633;42.716;23.312;2022-09-21T04:16:53;1.88;;;1.35;;
22935;SDS011;11633;42.716;23.312;2022-09-21T04:19:18;3.35;;;1.83;;
22935;SDS011;11633;42.716;23.312;2022-09-21T04:21:43;2.97;;;2.00;;
22935;SDS011;11633;42.716;23.312;2022-09-21T04:24:09;2.70;;;1.67;;
22935;SDS011;11633;42.716;23.312;2022-09-21T04:26:34;2.08;;;1.80;;
22935;SDS011;11633;42.716;23.312;2022-09-21T04:29:00;4.28;;;1.90;;
22935;SDS011;11633;42.716;23.312;2022-09-21T04:31:25;5.55;;;2.10;;
22935;SDS011;11633;42.716;23.312;2022-09-21T04:33:52;2.80;;;2.08;;
22935;SDS011;11633;42.716;23.312;2022-09-21T04:36:21;3.63;;;1.75;;
22935;SDS011;11633;42.716;23.312;2022-09-21T04:38:47;2.58;;;2.15;;
22935;SDS011;11633;42.716;23.312;2022-09-21T04:41:13;3.47;;;1.85;;
22935;SDS011;11633;42.716;23.312;2022-09-21T04:43:42;2.15;;;1.50;;
22935;SDS011;11633;42.716;23.312;2022-09-21T04:46:08;2.58;;;1.40;;
22935;SDS011;11633;42.716;23.312;2022-09-21T04:48:34;2.55;;;1.77;;
22935;SDS011;11633;42.716;23.312;2022-09-21T04:51:00;2.05;;;1.92;;
22935;SDS011;11633;42.716;23.312;2022-09-21T04:53:25;6.35;;;2.17;;
22935;SDS011;11633;42.716;23.312;2022-09-21T04:55:50;3.45;;;2.20;;
22935;SDS011;11633;42.716;23.312;2022-09-21T04:58:16;3.85;;;1.92;;
22935;SDS011;11633;42.716;23.312;2022-09-21T05:00:41;1.98;;;1.75;;
22935;SDS011;11633;42.716;23.312;2022-09-21T05:03:08;4.03;;;2.03;;
22935;SDS011;11633;42.716;23.312;2022-09-21T05:05:33;2.22;;;2.03;;
22935;SDS011;11633;42.716;23.312;2022-09-21T05:07:58;3.03;;;2.53;;
22935;SDS011;11633;42.716;23.312;2022-09-21T05:10:23;3.25;;;2.85;;
22935;SDS011;11633;42.716;23.312;2022-09-21T05:12:49;4.22;;;2.13;;
22935;SDS011;11633;42.716;23.312;2022-09-21T05:15:15;3.55;;;1.80;;
22935;SDS011;11633;42.716;23.312;2022-09-21T05:17:40;8.63;;;3.40;;
22935;SDS011;11633;42.716;23.312;2022-09-21T05:20:05;6.18;;;2.60;;
22935;SDS011;11633;42.716;23.312;2022-09-21T05:22:31;3.55;;;2.17;;
22935;SDS011;11633;42.716;23.312;2022-09-21T05:24:56;2.25;;;2.05;;
22935;SDS011;11633;42.716;23.312;2022-09-21T05:27:21;4.30;;;2.08;;
22935;SDS011;11633;42.716;23.312;2022-09-21T05:29:47;5.85;;;2.35;;
22935;SDS011;11633;42.716;23.312;2022-09-21T05:34:49;3.30;;;2.10;;
22935;SDS011;11633;42.716;23.312;2022-09-21T05:39:41;5.43;;;2.25;;
22935;SDS011;11633;42.716;23.312;2022-09-21T05:42:08;2.67;;;2.05;;
22935;SDS011;11633;42.716;23.312;2022-09-21T05:44:33;5.90;;;2.72;;
22935;SDS011;11633;42.716;23.312;2022-09-21T05:54:51;3.45;;;1.88;;
22935;SDS011;11633;42.716;23.312;2022-09-21T06:02:29;1.92;;;1.70;;
22935;SDS011;11633;42.716;23.312;2022-09-21T06:04:59;2.45;;;1.80;;
22935;SDS011;11633;42.716;23.312;2022-09-21T06:07:25;2.70;;;1.83;;
22935;SDS011;11633;42.716;23.312;2022-09-21T06:09:50;2.58;;;1.85;;
22935;SDS011;11633;42.716;23.312;2022-09-21T06:12:16;2.45;;;2.10;;
22935;SDS011;11633;42.716;23.312;2022-09-21T06:14:41;1.88;;;1.70;;
22935;SDS011;11633;42.716;23.312;2022-09-21T06:17:25;3.53;;;1.75;;
22935;SDS011;11633;42.716;23.312;2022-09-21T06:19:54;2.45;;;1.77;;
22935;SDS011;11633;42.716;23.312;2022-09-21T06:22:19;2.75;;;1.50;;
22935;SDS011;11633;42.716;23.312;2022-09-21T06:24:45;1.83;;;1.52;;
22935;SDS011;11633;42.716;23.312;2022-09-21T06:27:10;1.98;;;1.33;;
22935;SDS011;11633;42.716;23.312;2022-09-21T06:29:35;2.90;;;1.77;;
22935;SDS011;11633;42.716;23.312;2022-09-21T06:32:01;1.75;;;1.60;;
22935;SDS011;11633;42.716;23.312;2022-09-21T06:34:26;4.45;;;3.88;;
22935;SDS011;11633;42.716;23.312;2022-09-21T06:36:52;6.50;;;3.92;;
22935;SDS011;11633;42.716;23.312;2022-09-21T06:39:17;7.10;;;3.92;;
22935;SDS011;11633;42.716;23.312;2022-09-21T06:41:42;7.05;;;4.35;;
22935;SDS011;11633;42.716;23.312;2022-09-21T06:44:07;9.00;;;5.43;;
22935;SDS011;11633;42.716;23.312;2022-09-21T06:46:32;17.13;;;8.60;;
22935;SDS011;11633;42.716;23.312;2022-09-21T06:48:58;11.55;;;7.32;;
22935;SDS011;11633;42.716;23.312;2022-09-21T06:51:23;5.25;;;3.75;;
22935;SDS011;11633;42.716;23.312;2022-09-21T06:53:52;4.05;;;2.63;;
22935;SDS011;11633;42.716;23.312;2022-09-21T06:56:18;3.05;;;2.25;;
22935;SDS011;11633;42.716;23.312;2022-09-21T06:58:43;2.10;;;1.88;;
22935;SDS011;11633;42.716;23.312;2022-09-21T07:01:09;2.92;;;2.13;;
22935;SDS011;11633;42.716;23.312;2022-09-21T07:03:34;2.83;;;1.80;;
22935;SDS011;11633;42.716;23.312;2022-09-21T07:06:00;2.38;;;1.70;;
22935;SDS011;11633;42.716;23.312;2022-09-21T07:08:26;2.75;;;1.88;;
22935;SDS011;11633;42.716;23.312;2022-09-21T07:10:51;1.83;;;1.50;;
22935;SDS011;11633;42.716;23.312;2022-09-21T07:13:17;3.15;;;1.95;;
22935;SDS011;11633;42.716;23.312;2022-09-21T07:15:42;2.00;;;1.27;;
22935;SDS011;11633;42.716;23.312;2022-09-21T07:18:11;5.55;;;1.65;;
22935;SDS011;11633;42.716;23.312;2022-09-21T07:20:36;3.47;;;1.50;;
22935;SDS011;11633;42.716;23.312;2022-09-21T07:23:10;1.75;;;1.30;;
22935;SDS011;11633;42.716;23.312;2022-09-21T07:25:35;1.52;;;1.38;;
22935;SDS011;11633;42.716;23.312;2022-09-21T07:28:00;3.13;;;1.70;;
22935;SDS011;11633;42.716;23.312;2022-09-21T07:30:26;2.22;;;1.33;;
22935;SDS011;11633;42.716;23.312;2022-09-21T07:32:51;2.40;;;1.30;;
22935;SDS011;11633;42.716;23.312;2022-09-21T07:35:17;1.42;;;1.10;;
22935;SDS011;11633;42.716;23.312;2022-09-21T07:37:43;1.80;;;1.35;;
22935;SDS011;11633;42.716;23.312;2022-09-21T07:40:08;1.65;;;1.10;;
22935;SDS011;11633;42.716;23.312;2022-09-21T07:42:34;0.95;;;0.90;;
22935;SDS011;11633;42.716;23.312;2022-09-21T07:44:59;2.45;;;1.20;;
22935;SDS011;11633;42.716;23.312;2022-09-21T07:47:24;1.45;;;0.93;;
22935;SDS011;11633;42.716;23.312;2022-09-21T07:49:50;1.67;;;0.98;;
22935;SDS011;11633;42.716;23.312;2022-09-21T07:52:15;1.77;;;1.23;;
22935;SDS011;11633;42.716;23.312;2022-09-21T07:54:40;1.73;;;1.23;;
22935;SDS011;11633;42.716;23.312;2022-09-21T07:57:05;2.22;;;1.17;;
22935;SDS011;11633;42.716;23.312;2022-09-21T07:59:49;1.30;;;1.20;;
22935;SDS011;11633;42.716;23.312;2022-09-21T08:02:14;1.67;;;1.08;;
22935;SDS011;11633;42.716;23.312;2022-09-21T08:04:40;1.80;;;1.30;;
22935;SDS011;11633;42.716;23.312;2022-09-21T08:07:05;1.15;;;1.00;;
22935;SDS011;11633;42.716;23.312;2022-09-21T08:09:39;1.20;;;1.10;;
22935;SDS011;11633;42.716;23.312;2022-09-21T08:12:14;1.30;;;1.20;;
22935;SDS011;11633;42.716;23.312;2022-09-21T08:14:43;1.75;;;0.68;;
22935;SDS011;11633;42.716;23.312;2022-09-21T08:17:24;1.20;;;1.00;;
22935;SDS011;11633;42.716;23.312;2022-09-21T08:19:50;1.58;;;0.90;;
22935;SDS011;11633;42.716;23.312;2022-09-21T08:22:15;1.25;;;0.80;;
22935;SDS011;11633;42.716;23.312;2022-09-21T08:24:40;1.85;;;1.10;;
22935;SDS011;11633;42.716;23.312;2022-09-21T08:27:08;1.48;;;1.02;;
22935;SDS011;11633;42.716;23.312;2022-09-21T08:29:34;2.20;;;1.20;;
22935;SDS011;11633;42.716;23.312;2022-09-21T08:32:00;1.02;;;0.95;;
22935;SDS011;11633;42.716;23.312;2022-09-21T08:34:26;0.73;;;0.70;;
22935;SDS011;11633;42.716;23.312;2022-09-21T08:36:52;1.23;;;0.88;;
22935;SDS011;11633;42.716;23.312;2022-09-21T08:39:17;0.60;;;0.52;;
22935;SDS011;11633;42.716;23.312;2022-09-21T08:46:42;0.80;;;0.80;;
22935;SDS011;11633;42.716;23.312;2022-09-21T08:49:19;1.40;;;0.73;;
22935;SDS011;11633;42.716;23.312;2022-09-21T08:52:07;0.50;;;0.50;;
22935;SDS011;11633;42.716;23.312;2022-09-21T08:54:36;1.23;;;0.50;;
22935;SDS011;11633;42.716;23.312;2022-09-21T08:57:02;1.02;;;0.90;;
22935;SDS011;11633;42.716;23.312;2022-09-21T08:59:28;0.70;;;0.60;;
22935;SDS011;11633;42.716;23.312;2022-09-21T09:07:13;0.82;;;0.50;;
22935;SDS011;11633;42.716;23.312;2022-09-21T09:19:57;0.57;;;0.57;;
22935;SDS011;11633;42.716;23.312;2022-09-21T09:22:29;0.82;;;0.50;;
22935;SDS011;11633;42.716;23.312;2022-09-21T09:25:02;0.45;;;0.45;;
22935;SDS011;11633;42.716;23.312;2022-09-21T09:30:00;1.30;;;0.73;;
22935;SDS011;11633;42.716;23.312;2022-09-21T09:32:35;2.40;;;0.75;;
22935;SDS011;11633;42.716;23.312;2022-09-21T09:35:06;1.23;;;0.50;;
22935;SDS011;11633;42.716;23.312;2022-09-21T09:37:40;0.88;;;0.68;;
22935;SDS011;11633;42.716;23.312;2022-09-21T09:40:06;0.50;;;0.40;;
22935;SDS011;11633;42.716;23.312;2022-09-21T09:45:19;1.02;;;0.60;;
22935;SDS011;11633;42.716;23.312;2022-09-21T09:47:58;0.68;;;0.60;;
22935;SDS011;11633;42.716;23.312;2022-09-21T09:50:39;0.50;;;0.50;;
22935;SDS011;11633;42.716;23.312;2022-09-21T09:53:08;0.75;;;0.73;;
22935;SDS011;11633;42.716;23.312;2022-09-21T09:55:36;0.60;;;0.60;;
22935;SDS011;11633;42.716;23.312;2022-09-21T09:58:02;1.27;;;0.80;;
22935;SDS011;11633;42.716;23.312;2022-09-21T10:00:27;0.65;;;0.50;;
22935;SDS011;11633;42.716;23.312;2022-09-21T10:02:54;0.50;;;0.50;;
22935;SDS011;11633;42.716;23.312;2022-09-21T10:05:23;0.52;;;0.52;;
22935;SDS011;11633;42.716;23.312;2022-09-21T10:07:49;0.80;;;0.68;;
22935;SDS011;11633;42.716;23.312;2022-09-21T10:12:46;1.13;;;0.63;;
22935;SDS011;11633;42.716;23.312;2022-09-21T10:15:12;0.65;;;0.65;;
22935;SDS011;11633;42.716;23.312;2022-09-21T10:17:37;0.45;;;0.35;;
22935;SDS011;11633;42.716;23.312;2022-09-21T10:20:03;0.70;;;0.60;;
22935;SDS011;11633;42.716;23.312;2022-09-21T10:22:29;0.68;;;0.65;;
22935;SDS011;11633;42.716;23.312;2022-09-21T10:24:54;0.43;;;0.43;;
22935;SDS011;11633;42.716;23.312;2022-09-21T10:27:24;0.70;;;0.70;;
22935;SDS011;11633;42.716;23.312;2022-09-21T10:29:50;0.55;;;0.50;;
22935;SDS011;11633;42.716;23.312;2022-09-21T10:37:28;0.57;;;0.43;;
22935;SDS011;11633;42.716;23.312;2022-09-21T10:39:54;0.40;;;0.38;;
22935;SDS011;11633;42.716;23.312;2022-09-21T10:42:19;0.63;;;0.40;;
22935;SDS011;11633;42.716;23.312;2022-09-21T10:44:46;0.70;;;0.65;;
22935;SDS011;11633;42.716;23.312;2022-09-21T10:49:56;1.10;;;0.50;;
22935;SDS011;11633;42.716;23.312;2022-09-21T10:52:31;0.30;;;0.30;;
22935;SDS011;11633;42.716;23.312;2022-09-21T10:54:57;0.40;;;0.40;;
22935;SDS011;11633;42.716;23.312;2022-09-21T10:57:23;0.82;;;0.50;;
22935;SDS011;11633;42.716;23.312;2022-09-21T10:59:49;1.33;;;0.68;;
22935;SDS011;11633;42.716;23.312;2022-09-21T11:02:25;0.40;;;0.40;;
22935;SDS011;11633;42.716;23.312;2022-09-21T11:04:52;0.40;;;0.30;;
22935;SDS011;11633;42.716;23.312;2022-09-21T11:07:21;0.40;;;0.40;;
22935;SDS011;11633;42.716;23.312;2022-09-21T11:09:52;0.82;;;0.20;;
22935;SDS011;11633;42.716;23.312;2022-09-21T11:14:52;0.50;;;0.30;;
22935;SDS011;11633;42.716;23.312;2022-09-21T11:24:59;2.22;;;0.40;;
22935;SDS011;11633;42.716;23.312;2022-09-21T11:27:28;1.38;;;0.60;;
22935;SDS011;11633;42.716;23.312;2022-09-21T11:30:29;1.15;;;0.50;;
22935;SDS011;11633;42.716;23.312;2022-09-21T11:43:19;0.38;;;0.20;;
22935;SDS011;11633;42.716;23.312;2022-09-21T11:48:36;0.40;;;0.28;;
22935;SDS011;11633;42.716;23.312;2022-09-21T12:03:49;0.30;;;0.30;;
22935;SDS011;11633;42.716;23.312;2022-09-21T12:07:04;0.17;;;0.17;;
22935;SDS011;11633;42.716;23.312;2022-09-21T12:19:53;0.30;;;0.30;;
22935;SDS011;11633;42.716;23.312;2022-09-21T12:22:25;2.05;;;0.55;;
22935;SDS011;11633;42.716;23.312;2022-09-21T12:24:53;0.45;;;0.43;;
22935;SDS011;11633;42.716;23.312;2022-09-21T12:27:26;0.22;;;0.22;;
22935;SDS011;11633;42.716;23.312;2022-09-21T12:29:58;1.05;;;0.30;;
22935;SDS011;11633;42.716;23.312;2022-09-21T12:35:13;0.35;;;0.20;;
22935;SDS011;11633;42.716;23.312;2022-09-21T12:37:59;0.75;;;0.60;;
22935;SDS011;11633;42.716;23.312;2022-09-21T12:40:31;0.30;;;0.30;;
22935;SDS011;11633;42.716;23.312;2022-09-21T12:43:11;0.50;;;0.30;;
22935;SDS011;11633;42.716;23.312;2022-09-21T12:45:39;0.20;;;0.20;;
22935;SDS011;11633;42.716;23.312;2022-09-21T12:48:08;0.40;;;0.30;;
22935;SDS011;11633;42.716;23.312;2022-09-21T12:53:01;0.30;;;0.30;;
22935;SDS011;11633;42.716;23.312;2022-09-21T12:58:12;0.30;;;0.30;;
22935;SDS011;11633;42.716;23.312;2022-09-21T13:00:45;0.55;;;0.30;;
22935;SDS011;11633;42.716;23.312;2022-09-21T13:03:20;0.52;;;0.30;;
22935;SDS011;11633;42.716;23.312;2022-09-21T13:08:51;0.10;;;0.10;;
22935;SDS011;11633;42.716;23.312;2022-09-21T13:11:17;0.10;;;0.10;;
22935;SDS011;11633;42.716;23.312;2022-09-21T13:13:49;1.20;;;0.30;;
22935;SDS011;11633;42.716;23.312;2022-09-21T13:16:24;0.40;;;0.10;;
22935;SDS011;11633;42.716;23.312;2022-09-21T13:18:55;0.20;;;0.20;;
22935;SDS011;11633;42.716;23.312;2022-09-21T13:21:26;0.32;;;0.30;;
22935;SDS011;11633;42.716;23.312;2022-09-21T13:23:55;0.98;;;0.25;;
22935;SDS011;11633;42.716;23.312;2022-09-21T13:26:28;0.32;;;0.20;;
22935;SDS011;11633;42.716;23.312;2022-09-21T13:31:40;0.50;;;0.28;;
22935;SDS011;11633;42.716;23.312;2022-09-21T13:36:34;0.52;;;0.40;;
22935;SDS011;11633;42.716;23.312;2022-09-21T13:39:13;0.40;;;0.40;;
22935;SDS011;11633;42.716;23.312;2022-09-21T13:41:39;0.40;;;0.40;;
22935;SDS011;11633;42.716;23.312;2022-09-21T13:44:18;0.60;;;0.50;;
22935;SDS011;11633;42.716;23.312;2022-09-21T13:46:44;0.25;;;0.20;;
22935;SDS011;11633;42.716;23.312;2022-09-21T13:54:22;0.30;;;0.30;;
22935;SDS011;11633;42.716;23.312;2022-09-21T13:59:33;0.50;;;0.47;;
22935;SDS011;11633;42.716;23.312;2022-09-21T14:02:00;0.60;;;0.50;;
22935;SDS011;11633;42.716;23.312;2022-09-21T14:04:27;1.17;;;0.88;;
22935;SDS011;11633;42.716;23.312;2022-09-21T14:06:54;1.90;;;1.40;;
22935;SDS011;11633;42.716;23.312;2022-09-21T14:11:58;0.50;;;0.40;;
22935;SDS011;11633;42.716;23.312;2022-09-21T14:14:32;0.70;;;0.70;;
22935;SDS011;11633;42.716;23.312;2022-09-21T14:16:59;1.25;;;0.57;;
22935;SDS011;11633;42.716;23.312;2022-09-21T14:24:41;0.85;;;0.50;;
22935;SDS011;11633;42.716;23.312;2022-09-21T14:32:24;1.77;;;0.70;;
22935;SDS011;11633;42.716;23.312;2022-09-21T14:34:52;1.48;;;0.73;;
22935;SDS011;11633;42.716;23.312;2022-09-21T14:37:32;0.73;;;0.70;;
22935;SDS011;11633;42.716;23.312;2022-09-21T14:40:03;1.05;;;0.80;;
22935;SDS011;11633;42.716;23.312;2022-09-21T14:42:29;1.60;;;0.90;;
22935;SDS011;11633;42.716;23.312;2022-09-21T14:44:57;0.60;;;0.60;;
22935;SDS011;11633;42.716;23.312;2022-09-21T14:50:28;1.95;;;0.68;;
22935;SDS011;11633;42.716;23.312;2022-09-21T14:57:47;0.40;;;0.40;;
22935;SDS011;11633;42.716;23.312;2022-09-21T15:00:34;1.00;;;0.75;;
22935;SDS011;11633;42.716;23.312;2022-09-21T15:05:35;0.90;;;0.60;;
22935;SDS011;11633;42.716;23.312;2022-09-21T15:21:38;0.90;;;0.70;;
22935;SDS011;11633;42.716;23.312;2022-09-21T15:24:20;0.43;;;0.43;;
22935;SDS011;11633;42.716;23.312;2022-09-21T15:26:47;0.95;;;0.70;;
22935;SDS011;11633;42.716;23.312;2022-09-21T15:29:31;1.05;;;0.50;;
22935;SDS011;11633;42.716;23.312;2022-09-21T15:31:57;0.52;;;0.50;;
22935;SDS011;11633;42.716;23.312;2022-09-21T15:34:23;1.00;;;0.60;;
22935;SDS011;11633;42.716;23.312;2022-09-21T15:36:49;0.57;;;0.40;;
22935;SDS011;11633;42.716;23.312;2022-09-21T15:39:23;0.90;;;0.68;;
22935;SDS011;11633;42.716;23.312;2022-09-21T15:41:53;0.50;;;0.50;;
22935;SDS011;11633;42.716;23.312;2022-09-21T15:44:21;0.70;;;0.70;;
22935;SDS011;11633;42.716;23.312;2022-09-21T15:46:47;3.55;;;2.45;;
22935;SDS011;11633;42.716;23.312;2022-09-21T15:49:13;1.63;;;1.52;;
22935;SDS011;11633;42.716;23.312;2022-09-21T15:51:41;1.58;;;0.63;;
22935;SDS011;11633;42.716;23.312;2022-09-21T15:54:28;0.82;;;0.68;;
22935;SDS011;11633;42.716;23.312;2022-09-21T15:56:56;1.00;;;0.65;;
22935;SDS011;11633;42.716;23.312;2022-09-21T15:59:21;0.50;;;0.50;;
22935;SDS011;11633;42.716;23.312;2022-09-21T16:01:48;2.53;;;0.95;;
22935;SDS011;11633;42.716;23.312;2022-09-21T16:04:24;0.95;;;0.73;;
22935;SDS011;11633;42.716;23.312;2022-09-21T16:07:01;0.95;;;0.57;;
22935;SDS011;11633;42.716;23.312;2022-09-21T16:09:44;5.07;;;0.70;;
22935;SDS011;11633;42.716;23.312;2022-09-21T16:14:50;0.65;;;0.60;;
22935;SDS011;11633;42.716;23.312;2022-09-21T16:17:22;0.50;;;0.50;;
22935;SDS011;11633;42.716;23.312;2022-09-21T16:22:28;0.70;;;0.63;;
22935;SDS011;11633;42.716;23.312;2022-09-21T16:24:55;1.15;;;0.90;;
22935;SDS011;11633;42.716;23.312;2022-09-21T16:27:22;1.77;;;1.30;;
22935;SDS011;11633;42.716;23.312;2022-09-21T16:29:47;2.47;;;1.13;;
22935;SDS011;11633;42.716;23.312;2022-09-21T16:34:42;2.15;;;1.52;;
22935;SDS011;11633;42.716;23.312;2022-09-21T16:39:49;2.08;;;0.95;;
22935;SDS011;11633;42.716;23.312;2022-09-21T16:42:15;1.85;;;1.10;;
22935;SDS011;11633;42.716;23.312;2022-09-21T16:44:41;1.67;;;1.10;;
22935;SDS011;11633;42.716;23.312;2022-09-21T16:47:16;1.15;;;0.88;;
22935;SDS011;11633;42.716;23.312;2022-09-21T16:49:46;1.08;;;0.80;;
22935;SDS011;11633;42.716;23.312;2022-09-21T16:52:12;0.90;;;0.88;;
22935;SDS011;11633;42.716;23.312;2022-09-21T16:54:40;6.88;;;1.45;;
22935;SDS011;11633;42.716;23.312;2022-09-21T16:57:05;3.80;;;1.70;;
22935;SDS011;11633;42.716;23.312;2022-09-21T16:59:31;1.65;;;1.23;;
22935;SDS011;11633;42.716;23.312;2022-09-21T17:01:57;1.88;;;1.67;;
22935;SDS011;11633;42.716;23.312;2022-09-21T17:04:24;5.22;;;2.97;;
22935;SDS011;11633;42.716;23.312;2022-09-21T17:06:50;3.83;;;2.05;;
22935;SDS011;11633;42.716;23.312;2022-09-21T17:11:41;3.38;;;2.08;;
22935;SDS011;11633;42.716;23.312;2022-09-21T17:14:09;3.22;;;2.35;;
22935;SDS011;11633;42.716;23.312;2022-09-21T17:16:35;4.00;;;2.72;;
22935;SDS011;11633;42.716;23.312;2022-09-21T17:19:01;3.55;;;2.28;;
22935;SDS011;11633;42.716;23.312;2022-09-21T17:21:27;2.08;;;1.85;;
22935;SDS011;11633;42.716;23.312;2022-09-21T17:23:52;4.03;;;2.72;;
22935;SDS011;11633;42.716;23.312;2022-09-21T17:26:18;3.97;;;2.83;;
22935;SDS011;11633;42.716;23.312;2022-09-21T17:28:45;2.05;;;1.85;;
22935;SDS011;11633;42.716;23.312;2022-09-21T17:31:10;2.92;;;2.58;;
22935;SDS011;11633;42.716;23.312;2022-09-21T17:33:36;2.30;;;1.70;;
22935;SDS011;11633;42.716;23.312;2022-09-21T17:36:01;2.13;;;1.75;;
22935;SDS011;11633;42.716;23.312;2022-09-21T17:38:30;2.67;;;2.25;;
22935;SDS011;11633;42.716;23.312;2022-09-21T17:40:56;2.75;;;2.47;;
22935;SDS011;11633;42.716;23.312;2022-09-21T17:46:19;4.18;;;2.78;;
22935;SDS011;11633;42.716;23.312;2022-09-21T17:48:46;2.30;;;1.88;;
22935;SDS011;11633;42.716;23.312;2022-09-21T17:51:12;2.83;;;1.85;;
22935;SDS011;11633;42.716;23.312;2022-09-21T17:53:57;6.43;;;4.88;;
22935;SDS011;11633;42.716;23.312;2022-09-21T17:59:15;10.68;;;8.13;;
22935;SDS011;11633;42.716;23.312;2022-09-21T18:01:44;8.13;;;5.38;;
22935;SDS011;11633;42.716;23.312;2022-09-21T18:04:09;4.50;;;3.10;;
22935;SDS011;11633;42.716;23.312;2022-09-21T18:06:35;2.83;;;2.00;;